• Join FlightAware (Why Join?)
  • Login
  • US Flag 
02:50AM EST


 

Airport Tracker/Info


-or-


 

Live Flight TrackerFlight Track Log ✈ N454AN ✈ 09-May-2013 ✈ KPDK - KMSL

Flight Track Log - Related Links

Times and Time Zones

All times are in EDT time to prevent confusion due to time zone crossing. See the N454AN flight status page for this flight to view local times or setup timezone preferences in your user account.

Time Position Orientation Groundspeed Altitude Reporting Facility
EDT Latitude Longitude Course Direction KTS MPH feet Rate Location/Type
06:11PM 33.8500 -84.3167 270° West 199 229 2,100  Level Atlanta TRACON
06:12PM 33.8500 -84.3833 270° West 229 264 3,000 1,260 Climbing Atlanta TRACON
06:13PM 33.8333 -84.4667 256° West 216 249 4,700 960 Climbing Atlanta TRACON
06:14PM 33.8333 -84.5333 270° West 252 290 5,000 780 Climbing Atlanta TRACON
06:15PM 33.8167 -84.6333 259° West 276 318 6,300 2,220 Climbing Atlanta TRACON
06:16PM 33.7833 -84.7167 244° Southwest 283 326 9,500 2,640 Climbing Atlanta TRACON
06:18PM 33.7225 -84.8756 245° Southwest 355 409 13,300 2,580 Climbing Atlanta Center
06:19PM 33.7069 -85.0003 262° West 370 426 16,300 2,340 Climbing Atlanta Center
06:20PM 33.7353 -85.1281 285° West 383 441 18,000 840 Climbing Atlanta Center
06:21PM 33.7656 -85.2433 288° West 394 453 18,000  Level Atlanta Center
06:22PM 33.7975 -85.3736 286° West 400 460 18,000  Level Atlanta Center
06:23PM 33.8314 -85.5017 288° West 402 463 18,000  Level Atlanta Center
06:24PM 33.8653 -85.6300 288° West 402 463 18,000  Level Atlanta Center
06:25PM 33.8969 -85.7606 286° West 402 463 18,000  Level Atlanta Center
06:26PM 33.9325 -85.8992 287° West 402 463 18,000  Level Atlanta Center
06:27PM 33.9661 -86.0275 288° West 402 463 18,000  Level Atlanta Center
06:29PM 34.0497 -86.2258 297° West 398 458 18,000  Level Memphis Center
06:30PM 34.1053 -86.3336 302° West 408 470 18,000  Level Memphis Center
06:31PM 34.1764 -86.4708 302° West 413 475 18,000 -180 Level Memphis Center
06:32PM 34.2322 -86.5864 300° West 413 475 17,700 -1,020 Descending Memphis Center
06:33PM 34.2878 -86.6944 302° West 396 456 16,000 -1,860 Descending Memphis Center
06:34PM 34.3431 -86.8028 302° West 391 450 14,000 -2,100 Descending Memphis Center
06:35PM 34.3958 -86.9064 302° West 378 435 11,800 -2,280 Descending Memphis Center
06:36PM 34.4422 -86.9975 302° West 348 400 9,500 -2,100 Descending Memphis Center
06:37PM 34.4819 -87.0792 301° West 311 358 7,600 -1,800 Descending Memphis Center
06:38PM 34.5217 -87.1558 302° West 283 326 6,000 -1,620 Descending Memphis Center
06:39PM 34.5592 -87.2350 300° West 273 314 4,400 -1,500 Descending Memphis Center
06:40PM 34.6006 -87.3092 304° West 268 308 3,000 -900 Descending Memphis Center
06:41PM 34.6356 -87.3786 302° West 268 308 2,700 -300 Descending Memphis Center